Pagina principale
METAR-TAF:

METAR-TAF

Aeroporti :

Aeroporto di Vladikavkaz

Vladikavkaz, Russia

latitudine: 43-12-18N, longitudine: 044-36-24E, altezza: 510 m

Osservazione

Il bollettino è stato emesso 29 minuti fa, alle 22:00 UTC
Vento 6 kt da sud-est
Temperature 5°C
Umidità 100%
Pressione 1016 hPa
Visibilità: 0050 m

METAR: URMO 292200Z AUTO 13003MPS 0050 // ///001/// 05/05 Q1016 RMK QBB050 QFE718/0958

Ora: 01:29 (22:29 UTC)

Previsione

Il bollettino è stato emesso 8 ore e 29 minuti fa, alle 14:00 UTC
Previsione valida dal 29 alle 15 UTC al 29 alle 24 UTC
Vento 6 kt da est con raffiche fino a 16 kt
Visibilità 10 km o più
Nubi sparse ad un'altezza di 2000 ft
Temporaneamente
dal 29 alle 15 UTC al 29 alle 18 UTC
Visibilità: 2100 m
Nubi sparse ad un'altezza di 400 ft
Nubi sparse ad un'altezza di 1100 ft
foschia

TAF: URMO 291400Z 2915/2924 10003G08MPS 9999 SCT020 TEMPO 2915/2918 2100 BR SCT004 SCT011

Osservazioni e previsioni meteorologiche di più di 4000 aeroporti (messaggi METAR e TAF).

Le stazioni disponibili sono rappresentate dai dischi gialli e rossi sulla carta.

Puntare il mouse per vedere il nome della stazione.

Clicca sopra per visualizzare le osservazioni e previsioni meteorologiche.

Per cambiare la mappa : fare clic sui pulsanti verdi con una croce nera per ingrandire, il pulsante verde con un trattino per diminuire, o sulla freccia verde per le mappe adiacenti.


METAR-TAF: